sensor_id;sensor_type;location;lat;lon;timestamp;pressure;altitude;pressure_sealevel;temperature;humidity
20043;BME280;10182;52.896;6.496;2023-09-12T00:00:53;101249.09;;;19.07;100.00
20043;BME280;10182;52.896;6.496;2023-09-12T00:05:55;101217.34;;;19.01;100.00
20043;BME280;10182;52.896;6.496;2023-09-12T00:11:01;101218.66;;;18.96;100.00
20043;BME280;10182;52.896;6.496;2023-09-12T00:16:05;101232.84;;;18.98;100.00
20043;BME280;10182;52.896;6.496;2023-09-12T00:21:07;101228.31;;;18.98;100.00
20043;BME280;10182;52.896;6.496;2023-09-12T00:26:09;101212.72;;;19.03;100.00
20043;BME280;10182;52.896;6.496;2023-09-12T00:31:12;101187.38;;;19.07;100.00
20043;BME280;10182;52.896;6.496;2023-09-12T00:36:14;101196.63;;;19.03;100.00
20043;BME280;10182;52.896;6.496;2023-09-12T00:41:15;101190.41;;;19.03;100.00
20043;BME280;10182;52.896;6.496;2023-09-12T00:46:21;101183.44;;;19.00;100.00
20043;BME280;10182;52.896;6.496;2023-09-12T00:51:24;101183.84;;;19.07;100.00
20043;BME280;10182;52.896;6.496;2023-09-12T00:56:26;101186.44;;;18.96;100.00
20043;BME280;10182;52.896;6.496;2023-09-12T01:01:31;101204.31;;;18.84;100.00
20043;BME280;10182;52.896;6.496;2023-09-12T01:06:33;101211.84;;;18.78;100.00
20043;BME280;10182;52.896;6.496;2023-09-12T01:11:35;101217.53;;;18.74;100.00
20043;BME280;10182;52.896;6.496;2023-09-12T01:16:39;101208.00;;;18.70;100.00
20043;BME280;10182;52.896;6.496;2023-09-12T01:27:22;101219.31;;;18.62;100.00
20043;BME280;10182;52.896;6.496;2023-09-12T01:32:26;101213.41;;;18.57;100.00
20043;BME280;10182;52.896;6.496;2023-09-12T01:37:28;101220.72;;;18.55;100.00
20043;BME280;10182;52.896;6.496;2023-09-12T01:42:37;101218.59;;;18.47;100.00
20043;BME280;10182;52.896;6.496;2023-09-12T01:47:39;101208.19;;;18.42;100.00
20043;BME280;10182;52.896;6.496;2023-09-12T01:52:41;101220.09;;;18.38;100.00
20043;BME280;10182;52.896;6.496;2023-09-12T01:57:45;101233.44;;;18.40;100.00
20043;BME280;10182;52.896;6.496;2023-09-12T02:02:48;101232.31;;;18.42;100.00
20043;BME280;10182;52.896;6.496;2023-09-12T02:07:50;101237.06;;;18.39;100.00
20043;BME280;10182;52.896;6.496;2023-09-12T02:12:53;101233.75;;;18.35;100.00
20043;BME280;10182;52.896;6.496;2023-09-12T02:17:54;101246.31;;;18.35;100.00
20043;BME280;10182;52.896;6.496;2023-09-12T02:22:56;101250.19;;;18.31;100.00
20043;BME280;10182;52.896;6.496;2023-09-12T02:27:59;101238.06;;;18.25;100.00
20043;BME280;10182;52.896;6.496;2023-09-12T02:33:01;101232.59;;;18.14;100.00
20043;BME280;10182;52.896;6.496;2023-09-12T02:38:03;101227.91;;;18.04;100.00
20043;BME280;10182;52.896;6.496;2023-09-12T02:43:06;101231.00;;;17.98;100.00
20043;BME280;10182;52.896;6.496;2023-09-12T02:48:07;101227.88;;;17.91;100.00
20043;BME280;10182;52.896;6.496;2023-09-12T02:53:09;101223.69;;;17.87;100.00
20043;BME280;10182;52.896;6.496;2023-09-12T02:58:12;101220.38;;;17.84;100.00
20043;BME280;10182;52.896;6.496;2023-09-12T03:03:14;101217.28;;;17.77;100.00
20043;BME280;10182;52.896;6.496;2023-09-12T03:08:15;101227.88;;;17.79;100.00
20043;BME280;10182;52.896;6.496;2023-09-12T03:13:18;101216.84;;;17.70;100.00
20043;BME280;10182;52.896;6.496;2023-09-12T03:18:20;101215.22;;;17.68;100.00
20043;BME280;10182;52.896;6.496;2023-09-12T03:23:22;101214.44;;;17.66;100.00
20043;BME280;10182;52.896;6.496;2023-09-12T03:28:25;101214.16;;;17.70;100.00
20043;BME280;10182;52.896;6.496;2023-09-12T03:33:26;101213.94;;;17.73;100.00
20043;BME280;10182;52.896;6.496;2023-09-12T03:38:28;101225.19;;;17.79;100.00
20043;BME280;10182;52.896;6.496;2023-09-12T03:43:33;101215.53;;;17.76;100.00
20043;BME280;10182;52.896;6.496;2023-09-12T03:48:34;101220.47;;;17.69;100.00
20043;BME280;10182;52.896;6.496;2023-09-12T03:53:37;101217.25;;;17.64;100.00
20043;BME280;10182;52.896;6.496;2023-09-12T03:58:40;101219.28;;;17.61;100.00
20043;BME280;10182;52.896;6.496;2023-09-12T04:04:01;101226.66;;;17.57;100.00
20043;BME280;10182;52.896;6.496;2023-09-12T04:09:03;101224.00;;;17.57;100.00
20043;BME280;10182;52.896;6.496;2023-09-12T04:14:06;101209.63;;;17.45;100.00
20043;BME280;10182;52.896;6.496;2023-09-12T04:19:08;101207.16;;;17.42;100.00
20043;BME280;10182;52.896;6.496;2023-09-12T04:24:09;101201.47;;;17.34;100.00
20043;BME280;10182;52.896;6.496;2023-09-12T04:29:12;101193.94;;;17.26;100.00
20043;BME280;10182;52.896;6.496;2023-09-12T04:34:14;101200.19;;;17.27;100.00
20043;BME280;10182;52.896;6.496;2023-09-12T04:39:15;101199.28;;;17.26;100.00
20043;BME280;10182;52.896;6.496;2023-09-12T04:44:18;101195.34;;;17.32;100.00
20043;BME280;10182;52.896;6.496;2023-09-12T04:49:20;101197.28;;;17.30;100.00
20043;BME280;10182;52.896;6.496;2023-09-12T04:54:22;101199.53;;;17.36;100.00
20043;BME280;10182;52.896;6.496;2023-09-12T04:59:25;101198.13;;;17.30;100.00
20043;BME280;10182;52.896;6.496;2023-09-12T05:04:27;101200.34;;;17.23;100.00
20043;BME280;10182;52.896;6.496;2023-09-12T05:09:29;101207.22;;;17.28;100.00
20043;BME280;10182;52.896;6.496;2023-09-12T05:14:32;101211.94;;;17.24;100.00
20043;BME280;10182;52.896;6.496;2023-09-12T05:19:33;101206.88;;;17.19;100.00
20043;BME280;10182;52.896;6.496;2023-09-12T05:24:35;101200.47;;;17.22;100.00
20043;BME280;10182;52.896;6.496;2023-09-12T05:29:38;101208.72;;;17.19;100.00
20043;BME280;10182;52.896;6.496;2023-09-12T05:34:39;101219.03;;;17.25;100.00
20043;BME280;10182;52.896;6.496;2023-09-12T05:39:41;101224.09;;;17.15;100.00
20043;BME280;10182;52.896;6.496;2023-09-12T05:44:44;101233.00;;;17.16;100.00
20043;BME280;10182;52.896;6.496;2023-09-12T05:49:47;101254.78;;;17.24;100.00
20043;BME280;10182;52.896;6.496;2023-09-12T05:54:48;101250.59;;;17.33;100.00
20043;BME280;10182;52.896;6.496;2023-09-12T05:59:52;101250.50;;;17.34;100.00
20043;BME280;10182;52.896;6.496;2023-09-12T06:04:54;101246.03;;;17.35;100.00
20043;BME280;10182;52.896;6.496;2023-09-12T06:09:55;101249.16;;;17.41;100.00
20043;BME280;10182;52.896;6.496;2023-09-12T06:14:58;101250.72;;;17.44;100.00
20043;BME280;10182;52.896;6.496;2023-09-12T06:20:00;101256.13;;;17.57;100.00
20043;BME280;10182;52.896;6.496;2023-09-12T06:25:04;101251.63;;;17.57;100.00
20043;BME280;10182;52.896;6.496;2023-09-12T06:30:09;101250.88;;;17.68;100.00
20043;BME280;10182;52.896;6.496;2023-09-12T06:35:11;101255.41;;;17.68;100.00
20043;BME280;10182;52.896;6.496;2023-09-12T06:40:12;101254.78;;;17.77;100.00
20043;BME280;10182;52.896;6.496;2023-09-12T06:45:15;101253.72;;;17.92;100.00
20043;BME280;10182;52.896;6.496;2023-09-12T06:50:17;101250.59;;;17.99;100.00
20043;BME280;10182;52.896;6.496;2023-09-12T06:55:19;101246.75;;;18.16;100.00
20043;BME280;10182;52.896;6.496;2023-09-12T07:00:22;101249.09;;;18.33;100.00
20043;BME280;10182;52.896;6.496;2023-09-12T07:05:24;101256.16;;;18.47;100.00
20043;BME280;10182;52.896;6.496;2023-09-12T07:10:26;101248.84;;;18.49;100.00
20043;BME280;10182;52.896;6.496;2023-09-12T07:15:29;101236.03;;;18.66;100.00
20043;BME280;10182;52.896;6.496;2023-09-12T07:20:31;101239.31;;;18.82;100.00
20043;BME280;10182;52.896;6.496;2023-09-12T07:25:37;101238.72;;;19.03;100.00
20043;BME280;10182;52.896;6.496;2023-09-12T07:30:40;101242.78;;;19.08;100.00
20043;BME280;10182;52.896;6.496;2023-09-12T07:35:42;101248.16;;;19.08;100.00
20043;BME280;10182;52.896;6.496;2023-09-12T07:40:44;101254.03;;;19.14;100.00
20043;BME280;10182;52.896;6.496;2023-09-12T07:45:46;101257.72;;;19.00;100.00
20043;BME280;10182;52.896;6.496;2023-09-12T07:50:49;101271.41;;;18.84;100.00
20043;BME280;10182;52.896;6.496;2023-09-12T07:55:51;101280.00;;;18.76;100.00
20043;BME280;10182;52.896;6.496;2023-09-12T08:00:56;101292.78;;;18.72;100.00
20043;BME280;10182;52.896;6.496;2023-09-12T08:05:58;101295.13;;;18.90;100.00
20043;BME280;10182;52.896;6.496;2023-09-12T08:11:00;101297.50;;;18.94;100.00
20043;BME280;10182;52.896;6.496;2023-09-12T08:16:03;101282.88;;;18.99;100.00
20043;BME280;10182;52.896;6.496;2023-09-12T08:21:05;101285.19;;;19.03;100.00
20043;BME280;10182;52.896;6.496;2023-09-12T08:26:07;101297.31;;;19.09;100.00
20043;BME280;10182;52.896;6.496;2023-09-12T08:31:10;101306.44;;;19.06;100.00
20043;BME280;10182;52.896;6.496;2023-09-12T08:36:12;101300.22;;;19.06;100.00
20043;BME280;10182;52.896;6.496;2023-09-12T08:41:14;101308.72;;;19.00;100.00
20043;BME280;10182;52.896;6.496;2023-09-12T08:46:18;101302.69;;;19.09;100.00
20043;BME280;10182;52.896;6.496;2023-09-12T08:51:22;101300.16;;;19.19;100.00
20043;BME280;10182;52.896;6.496;2023-09-12T08:56:24;101296.66;;;19.54;100.00
20043;BME280;10182;52.896;6.496;2023-09-12T09:01:28;101291.88;;;19.82;100.00
20043;BME280;10182;52.896;6.496;2023-09-12T09:06:31;101282.16;;;20.15;100.00
20043;BME280;10182;52.896;6.496;2023-09-12T09:11:37;101280.47;;;20.14;100.00
20043;BME280;10182;52.896;6.496;2023-09-12T09:16:41;101281.69;;;20.32;100.00
20043;BME280;10182;52.896;6.496;2023-09-12T09:21:42;101275.09;;;20.48;100.00
20043;BME280;10182;52.896;6.496;2023-09-12T09:26:45;101271.06;;;20.53;100.00
20043;BME280;10182;52.896;6.496;2023-09-12T09:31:49;101275.59;;;20.41;100.00
20043;BME280;10182;52.896;6.496;2023-09-12T09:36:53;101272.88;;;20.64;100.00
20043;BME280;10182;52.896;6.496;2023-09-12T09:41:55;101268.47;;;20.74;100.00
20043;BME280;10182;52.896;6.496;2023-09-12T09:47:00;101267.44;;;20.98;100.00
20043;BME280;10182;52.896;6.496;2023-09-12T09:52:04;101262.13;;;21.19;100.00
20043;BME280;10182;52.896;6.496;2023-09-12T09:57:06;101259.91;;;21.13;100.00
20043;BME280;10182;52.896;6.496;2023-09-12T10:02:14;101253.53;;;21.46;100.00
20043;BME280;10182;52.896;6.496;2023-09-12T10:07:19;101248.69;;;21.83;100.00
20043;BME280;10182;52.896;6.496;2023-09-12T10:12:21;101249.06;;;21.99;100.00
20043;BME280;10182;52.896;6.496;2023-09-12T10:17:28;101251.59;;;22.22;100.00
20043;BME280;10182;52.896;6.496;2023-09-12T10:22:37;101248.41;;;22.07;100.00
20043;BME280;10182;52.896;6.496;2023-09-12T10:27:41;101244.56;;;22.00;100.00
20043;BME280;10182;52.896;6.496;2023-09-12T10:32:45;101252.88;;;21.96;100.00
20043;BME280;10182;52.896;6.496;2023-09-12T10:37:49;101256.09;;;22.11;100.00
20043;BME280;10182;52.896;6.496;2023-09-12T10:42:51;101248.72;;;22.13;100.00
20043;BME280;10182;52.896;6.496;2023-09-12T10:47:55;101251.91;;;22.28;100.00
20043;BME280;10182;52.896;6.496;2023-09-12T10:53:09;101240.53;;;22.25;100.00
20043;BME280;10182;52.896;6.496;2023-09-12T10:58:10;101239.19;;;22.40;100.00
20043;BME280;10182;52.896;6.496;2023-09-12T11:03:38;101231.16;;;22.60;100.00
20043;BME280;10182;52.896;6.496;2023-09-12T11:08:41;101233.91;;;22.79;100.00
20043;BME280;10182;52.896;6.496;2023-09-12T11:13:43;101246.13;;;22.84;100.00
20043;BME280;10182;52.896;6.496;2023-09-12T11:19:15;101241.19;;;22.98;100.00
20043;BME280;10182;52.896;6.496;2023-09-12T11:24:19;101237.06;;;23.04;100.00
20043;BME280;10182;52.896;6.496;2023-09-12T11:29:22;101231.06;;;22.91;100.00
20043;BME280;10182;52.896;6.496;2023-09-12T11:34:27;101233.38;;;22.95;100.00
20043;BME280;10182;52.896;6.496;2023-09-12T11:39:30;101233.00;;;23.20;100.00
20043;BME280;10182;52.896;6.496;2023-09-12T11:44:32;101242.50;;;23.34;100.00
20043;BME280;10182;52.896;6.496;2023-09-12T11:49:39;101232.94;;;23.59;100.00
20043;BME280;10182;52.896;6.496;2023-09-12T11:54:42;101235.63;;;23.69;100.00
20043;BME280;10182;52.896;6.496;2023-09-12T11:59:45;101231.22;;;23.68;100.00
20043;BME280;10182;52.896;6.496;2023-09-12T12:04:50;101219.09;;;23.81;100.00
20043;BME280;10182;52.896;6.496;2023-09-12T12:09:55;101233.41;;;24.02;100.00
20043;BME280;10182;52.896;6.496;2023-09-12T12:14:57;101226.22;;;23.63;100.00
20043;BME280;10182;52.896;6.496;2023-09-12T12:20:00;101221.75;;;23.24;100.00
20043;BME280;10182;52.896;6.496;2023-09-12T12:25:07;101228.94;;;22.85;100.00
20043;BME280;10182;52.896;6.496;2023-09-12T12:30:11;101233.41;;;22.45;100.00
20043;BME280;10182;52.896;6.496;2023-09-12T12:35:18;101226.19;;;21.62;100.00
20043;BME280;10182;52.896;6.496;2023-09-12T12:40:20;101224.56;;;21.39;100.00
20043;BME280;10182;52.896;6.496;2023-09-12T12:45:23;101233.66;;;21.05;100.00
20043;BME280;10182;52.896;6.496;2023-09-12T12:50:26;101223.84;;;21.04;100.00
20043;BME280;10182;52.896;6.496;2023-09-12T12:55:28;101207.97;;;20.90;100.00
20043;BME280;10182;52.896;6.496;2023-09-12T13:00:30;101200.38;;;20.95;100.00
20043;BME280;10182;52.896;6.496;2023-09-12T13:05:33;101200.25;;;20.96;100.00
20043;BME280;10182;52.896;6.496;2023-09-12T13:10:35;101218.59;;;21.03;100.00
20043;BME280;10182;52.896;6.496;2023-09-12T13:15:37;101203.16;;;21.05;100.00
20043;BME280;10182;52.896;6.496;2023-09-12T13:20:41;101202.28;;;21.37;100.00
20043;BME280;10182;52.896;6.496;2023-09-12T13:25:42;101195.06;;;21.79;100.00
20043;BME280;10182;52.896;6.496;2023-09-12T13:30:44;101189.09;;;22.17;100.00
20043;BME280;10182;52.896;6.496;2023-09-12T13:35:48;101175.41;;;22.29;100.00
20043;BME280;10182;52.896;6.496;2023-09-12T13:40:50;101173.91;;;22.56;100.00
20043;BME280;10182;52.896;6.496;2023-09-12T13:45:52;101170.22;;;22.77;100.00
20043;BME280;10182;52.896;6.496;2023-09-12T13:50:55;101169.09;;;22.99;100.00
20043;BME280;10182;52.896;6.496;2023-09-12T13:55:56;101173.78;;;23.26;100.00
20043;BME280;10182;52.896;6.496;2023-09-12T14:00:58;101170.22;;;23.36;100.00
20043;BME280;10182;52.896;6.496;2023-09-12T14:06:01;101172.63;;;23.39;100.00
20043;BME280;10182;52.896;6.496;2023-09-12T14:11:03;101181.75;;;23.38;100.00
20043;BME280;10182;52.896;6.496;2023-09-12T14:16:05;101182.31;;;23.41;100.00
20043;BME280;10182;52.896;6.496;2023-09-12T14:21:08;101185.47;;;23.37;100.00
20043;BME280;10182;52.896;6.496;2023-09-12T14:26:09;101176.38;;;23.38;100.00
20043;BME280;10182;52.896;6.496;2023-09-12T14:31:11;101178.78;;;23.41;100.00
20043;BME280;10182;52.896;6.496;2023-09-12T14:36:16;101176.78;;;23.23;100.00
20043;BME280;10182;52.896;6.496;2023-09-12T14:41:17;101177.38;;;23.17;100.00
20043;BME280;10182;52.896;6.496;2023-09-12T14:51:22;101158.44;;;23.07;100.00
20043;BME280;10182;52.896;6.496;2023-09-12T14:56:23;101158.75;;;23.14;100.00
20043;BME280;10182;52.896;6.496;2023-09-12T15:01:25;101162.69;;;23.10;100.00
20043;BME280;10182;52.896;6.496;2023-09-12T15:06:28;101155.88;;;22.86;100.00
20043;BME280;10182;52.896;6.496;2023-09-12T15:11:33;101161.56;;;23.03;100.00
20043;BME280;10182;52.896;6.496;2023-09-12T15:16:34;101158.03;;;22.92;100.00
20043;BME280;10182;52.896;6.496;2023-09-12T15:21:38;101157.31;;;22.71;100.00
20043;BME280;10182;52.896;6.496;2023-09-12T15:26:39;101157.56;;;22.48;100.00
20043;BME280;10182;52.896;6.496;2023-09-12T15:31:41;101168.44;;;22.27;100.00
20043;BME280;10182;52.896;6.496;2023-09-12T15:36:45;101151.19;;;22.08;100.00
20043;BME280;10182;52.896;6.496;2023-09-12T15:41:47;101158.41;;;21.98;100.00
20043;BME280;10182;52.896;6.496;2023-09-12T15:46:49;101159.06;;;21.90;100.00
20043;BME280;10182;52.896;6.496;2023-09-12T15:51:52;101160.50;;;21.94;100.00
20043;BME280;10182;52.896;6.496;2023-09-12T15:56:54;101167.00;;;21.92;100.00
20043;BME280;10182;52.896;6.496;2023-09-12T16:01:56;101161.31;;;21.85;100.00
20043;BME280;10182;52.896;6.496;2023-09-12T16:06:59;101171.44;;;21.72;100.00
20043;BME280;10182;52.896;6.496;2023-09-12T16:12:01;101171.81;;;21.57;100.00
20043;BME280;10182;52.896;6.496;2023-09-12T16:17:02;101176.38;;;21.45;100.00
20043;BME280;10182;52.896;6.496;2023-09-12T16:22:06;101167.69;;;21.42;100.00
20043;BME280;10182;52.896;6.496;2023-09-12T16:27:09;101154.69;;;21.47;100.00
20043;BME280;10182;52.896;6.496;2023-09-12T16:32:12;101152.28;;;21.44;100.00
20043;BME280;10182;52.896;6.496;2023-09-12T16:37:15;101153.25;;;21.43;100.00
20043;BME280;10182;52.896;6.496;2023-09-12T16:42:17;101161.34;;;21.43;100.00
20043;BME280;10182;52.896;6.496;2023-09-12T16:47:18;101166.72;;;21.43;100.00
20043;BME280;10182;52.896;6.496;2023-09-12T16:52:21;101172.69;;;21.25;100.00
20043;BME280;10182;52.896;6.496;2023-09-12T16:57:23;101170.69;;;21.18;100.00
20043;BME280;10182;52.896;6.496;2023-09-12T17:02:25;101175.13;;;21.07;100.00
20043;BME280;10182;52.896;6.496;2023-09-12T17:07:28;101175.53;;;21.03;100.00
20043;BME280;10182;52.896;6.496;2023-09-12T17:12:30;101178.50;;;20.88;100.00
20043;BME280;10182;52.896;6.496;2023-09-12T17:17:32;101193.50;;;20.70;100.00
20043;BME280;10182;52.896;6.496;2023-09-12T17:22:35;101196.19;;;20.70;100.00
20043;BME280;10182;52.896;6.496;2023-09-12T17:27:36;101214.16;;;20.58;100.00
20043;BME280;10182;52.896;6.496;2023-09-12T17:32:38;101220.28;;;20.49;100.00
20043;BME280;10182;52.896;6.496;2023-09-12T17:37:41;101221.66;;;20.43;100.00
20043;BME280;10182;52.896;6.496;2023-09-12T17:42:43;101227.41;;;20.38;100.00
20043;BME280;10182;52.896;6.496;2023-09-12T17:47:48;101229.25;;;20.26;100.00
20043;BME280;10182;52.896;6.496;2023-09-12T17:52:52;101216.28;;;20.09;100.00
20043;BME280;10182;52.896;6.496;2023-09-12T17:57:54;101211.16;;;19.94;100.00
20043;BME280;10182;52.896;6.496;2023-09-12T18:02:57;101223.59;;;19.95;100.00
20043;BME280;10182;52.896;6.496;2023-09-12T18:08:00;101239.38;;;19.89;100.00
20043;BME280;10182;52.896;6.496;2023-09-12T18:13:02;101245.97;;;19.85;100.00
20043;BME280;10182;52.896;6.496;2023-09-12T18:18:04;101252.56;;;19.81;100.00
20043;BME280;10182;52.896;6.496;2023-09-12T18:23:07;101267.41;;;19.73;100.00
20043;BME280;10182;52.896;6.496;2023-09-12T18:28:09;101270.78;;;19.64;100.00
20043;BME280;10182;52.896;6.496;2023-09-12T18:33:11;101264.31;;;19.55;100.00
20043;BME280;10182;52.896;6.496;2023-09-12T18:38:14;101269.28;;;19.49;100.00
20043;BME280;10182;52.896;6.496;2023-09-12T18:43:16;101269.53;;;19.45;100.00
20043;BME280;10182;52.896;6.496;2023-09-12T18:48:17;101265.13;;;19.44;100.00
20043;BME280;10182;52.896;6.496;2023-09-12T18:53:20;101266.41;;;19.27;100.00
20043;BME280;10182;52.896;6.496;2023-09-12T18:58:22;101270.75;;;19.17;100.00
20043;BME280;10182;52.896;6.496;2023-09-12T19:03:25;101281.09;;;19.10;100.00
20043;BME280;10182;52.896;6.496;2023-09-12T19:08:28;101268.53;;;19.11;100.00
20043;BME280;10182;52.896;6.496;2023-09-12T19:13:29;101281.03;;;18.99;100.00
20043;BME280;10182;52.896;6.496;2023-09-12T19:18:31;101276.53;;;18.87;100.00
20043;BME280;10182;52.896;6.496;2023-09-12T19:23:34;101275.16;;;18.81;100.00
20043;BME280;10182;52.896;6.496;2023-09-12T19:28:36;101273.31;;;18.82;100.00
20043;BME280;10182;52.896;6.496;2023-09-12T19:33:38;101273.31;;;18.82;100.00
20043;BME280;10182;52.896;6.496;2023-09-12T19:38:41;101280.91;;;18.64;100.00
20043;BME280;10182;52.896;6.496;2023-09-12T19:43:42;101280.59;;;18.55;100.00
20043;BME280;10182;52.896;6.496;2023-09-12T19:48:44;101269.22;;;18.52;100.00
20043;BME280;10182;52.896;6.496;2023-09-12T19:53:47;101263.78;;;18.40;100.00
20043;BME280;10182;52.896;6.496;2023-09-12T19:58:49;101278.78;;;18.43;100.00
20043;BME280;10182;52.896;6.496;2023-09-12T20:03:50;101276.09;;;18.43;100.00
20043;BME280;10182;52.896;6.496;2023-09-12T20:08:53;101270.63;;;18.44;100.00
20043;BME280;10182;52.896;6.496;2023-09-12T20:13:55;101263.53;;;18.43;100.00
20043;BME280;10182;52.896;6.496;2023-09-12T20:18:57;101258.28;;;18.42;100.00
20043;BME280;10182;52.896;6.496;2023-09-12T20:24:00;101253.59;;;18.33;100.00
20043;BME280;10182;52.896;6.496;2023-09-12T20:29:02;101252.53;;;18.22;100.00
20043;BME280;10182;52.896;6.496;2023-09-12T20:34:04;101257.91;;;18.22;100.00
20043;BME280;10182;52.896;6.496;2023-09-12T20:39:23;101260.03;;;18.30;100.00
20043;BME280;10182;52.896;6.496;2023-09-12T20:44:25;101245.88;;;18.28;100.00
20043;BME280;10182;52.896;6.496;2023-09-12T20:49:33;101236.88;;;18.16;100.00
20043;BME280;10182;52.896;6.496;2023-09-12T20:54:38;101230.56;;;18.17;100.00
20043;BME280;10182;52.896;6.496;2023-09-12T20:59:40;101232.59;;;18.14;100.00
20043;BME280;10182;52.896;6.496;2023-09-12T21:04:42;101231.97;;;18.10;100.00
20043;BME280;10182;52.896;6.496;2023-09-12T21:09:46;101237.94;;;18.14;100.00
20043;BME280;10182;52.896;6.496;2023-09-12T21:14:48;101244.06;;;18.16;100.00
20043;BME280;10182;52.896;6.496;2023-09-12T21:19:49;101258.56;;;18.13;100.00
20043;BME280;10182;52.896;6.496;2023-09-12T21:24:53;101269.03;;;18.16;100.00
20043;BME280;10182;52.896;6.496;2023-09-12T21:29:54;101259.94;;;18.19;100.00
20043;BME280;10182;52.896;6.496;2023-09-12T21:35:08;101244.31;;;18.13;100.00
20043;BME280;10182;52.896;6.496;2023-09-12T21:40:13;101247.19;;;18.09;100.00
20043;BME280;10182;52.896;6.496;2023-09-12T21:45:15;101253.41;;;17.97;100.00
20043;BME280;10182;52.896;6.496;2023-09-12T21:50:17;101252.56;;;17.97;100.00
20043;BME280;10182;52.896;6.496;2023-09-12T21:55:20;101263.16;;;17.98;100.00
20043;BME280;10182;52.896;6.496;2023-09-12T22:00:22;101263.28;;;17.97;100.00
20043;BME280;10182;52.896;6.496;2023-09-12T22:05:24;101260.59;;;17.97;100.00
20043;BME280;10182;52.896;6.496;2023-09-12T22:10:27;101259.53;;;17.99;100.00
20043;BME280;10182;52.896;6.496;2023-09-12T22:15:29;101250.19;;;18.05;100.00
20043;BME280;10182;52.896;6.496;2023-09-12T22:20:30;101254.47;;;18.07;100.00
20043;BME280;10182;52.896;6.496;2023-09-12T22:25:33;101255.56;;;18.05;100.00
20043;BME280;10182;52.896;6.496;2023-09-12T22:30:37;101252.34;;;18.00;100.00
20043;BME280;10182;52.896;6.496;2023-09-12T22:35:38;101262.09;;;18.01;100.00
20043;BME280;10182;52.896;6.496;2023-09-12T22:40:41;101256.19;;;18.08;100.00
20043;BME280;10182;52.896;6.496;2023-09-12T22:45:43;101267.66;;;18.10;100.00
20043;BME280;10182;52.896;6.496;2023-09-12T22:50:46;101258.56;;;18.13;100.00
20043;BME280;10182;52.896;6.496;2023-09-12T22:55:49;101258.22;;;18.18;100.00
20043;BME280;10182;52.896;6.496;2023-09-12T23:00:51;101254.47;;;18.20;100.00
20043;BME280;10182;52.896;6.496;2023-09-12T23:05:52;101249.88;;;18.22;100.00
20043;BME280;10182;52.896;6.496;2023-09-12T23:10:55;101250.47;;;18.26;100.00
20043;BME280;10182;52.896;6.496;2023-09-12T23:15:58;101255.53;;;18.18;100.00
20043;BME280;10182;52.896;6.496;2023-09-12T23:21:00;101250.94;;;18.20;100.00
20043;BME280;10182;52.896;6.496;2023-09-12T23:26:04;101265.19;;;18.20;100.00
20043;BME280;10182;52.896;6.496;2023-09-12T23:31:05;101268.84;;;18.19;100.00
20043;BME280;10182;52.896;6.496;2023-09-12T23:36:07;101266.25;;;18.18;100.00
20043;BME280;10182;52.896;6.496;2023-09-12T23:41:11;101272.38;;;18.20;100.00
20043;BME280;10182;52.896;6.496;2023-09-12T23:46:13;101260.81;;;18.19;100.00
20043;BME280;10182;52.896;6.496;2023-09-12T23:51:14;101252.53;;;18.22;100.00
20043;BME280;10182;52.896;6.496;2023-09-12T23:56:17;101248.66;;;18.14;100.00
